Time;durP1;ratioP1;P1;durP2;ratioP2;P2;SDS_P1;SDS_P2;PMS_P1;PMS_P2;Temp;Humidity;BMP_temperature;BMP_pressure;BME280_temperature;BME280_humidity;BME280_pressure;Samples;Min_cycle;Max_cycle;Signal;HPM_P1;HPM_P2
2023/12/23 00:00:09;;;;;;;;;;;16.40;57.20;;;;;;5066982;28;42895;-83
2023/12/23 00:02:35;;;;;;;;;;;;;;;;;;5048688;28;44140;-83
2023/12/23 00:05:01;;;;;;;;;;;16.30;57.10;;;;;;5067219;28;43076;-84
2023/12/23 00:07:26;;;;;;;;;;;16.20;57.30;;;;;;5049341;28;44374;-83
2023/12/23 00:09:52;;;;;;;;;;;16.30;57.10;;;;;;5049844;28;42964;-83
2023/12/23 00:12:17;;;;;;;;;;;16.30;57.20;;;;;;5053382;28;43969;-84
2023/12/23 00:14:43;;;;;;;;;;;;;;;;;;5053129;28;42968;-83
2023/12/23 00:17:09;;;;;;;;;;;16.10;57.00;;;;;;5068140;28;43435;-84
2023/12/23 00:19:34;;;;;;;;;;;16.40;57.10;;;;;;5067593;28;43029;-84
2023/12/23 00:22:00;;;;;;;;;;;16.30;57.00;;;;;;5068055;28;42919;-82
2023/12/23 00:24:28;;;;;;;;;;;16.30;57.10;;;;;;5069405;28;42882;-84
2023/12/23 00:26:57;;;;;;;;;;;16.10;57.10;;;;;;5087638;28;43669;-84
2023/12/23 00:29:23;;;;;;;;;;;16.40;57.10;;;;;;5087406;28;43099;-84
2023/12/23 00:31:49;;;;;;;;;;;16.20;57.00;;;;;;5063592;28;44593;-83
2023/12/23 00:34:15;;;;;;;;;;;;;;;;;;5066489;28;42968;-83
2023/12/23 00:36:40;;;;;;;;;;;16.20;57.10;;;;;;5065651;28;43683;-84
2023/12/23 00:39:06;;;;;;;;;;;16.20;57.10;;;;;;5076724;28;42908;-84
2023/12/23 00:41:32;;;;;;;;;;;;;;;;;;5070998;28;43292;-84
2023/12/23 00:43:57;;;;;;;;;;;16.30;56.00;;;;;;5084418;28;42805;-82
2023/12/23 00:46:23;;;;;;;;;;;16.30;57.20;;;;;;5066407;28;43558;-82
2023/12/23 00:48:48;;;;;;;;;;;16.40;57.20;;;;;;5067133;28;43159;-83
2023/12/23 00:51:15;;;;;;;;;;;;;;;;;;5068193;28;43571;-84
2023/12/23 00:53:41;;;;;;;;;;;;;;;;;;5075276;28;43064;-81
2023/12/23 00:56:06;;;;;;;;;;;16.30;57.20;;;;;;5078580;28;43615;-84
2023/12/23 00:58:32;;;;;;;;;;;;;;;;;;5067294;28;42981;-83
2023/12/23 01:00:58;;;;;;;;;;;16.30;57.20;;;;;;5067829;28;43789;-82
2023/12/23 01:03:23;;;;;;;;;;;16.20;57.20;;;;;;5067702;28;42944;-82
2023/12/23 01:05:49;;;;;;;;;;;16.20;57.30;;;;;;5073195;28;43349;-83
2023/12/23 01:08:15;;;;;;;;;;;;;;;;;;5085510;28;42925;-82
2023/12/23 01:10:40;;;;;;;;;;;;;;;;;;5085112;28;43744;-82
2023/12/23 01:13:06;;;;;;;;;;;16.40;57.20;;;;;;5046742;28;43271;-82
2023/12/23 01:15:32;;;;;;;;;;;16.30;57.20;;;;;;5064795;28;43810;-82
2023/12/23 01:17:58;;;;;;;;;;;;;;;;;;5082447;28;42834;-84
2023/12/23 01:20:24;;;;;;;;;;;16.30;57.30;;;;;;5069186;28;42930;-84
2023/12/23 01:22:49;;;;;;;;;;;16.20;57.20;;;;;;5086365;28;43034;-82
2023/12/23 01:25:15;;;;;;;;;;;16.30;57.20;;;;;;5084825;28;43575;-82
2023/12/23 01:27:41;;;;;;;;;;;;;;;;;;5084937;28;43060;-84
2023/12/23 01:30:07;;;;;;;;;;;;;;;;;;5066696;28;43448;-82
2023/12/23 01:32:33;;;;;;;;;;;;;;;;;;5068273;28;43129;-82
2023/12/23 01:34:59;;;;;;;;;;;;;;;;;;5067955;28;42877;-82
2023/12/23 01:37:24;;;;;;;;;;;16.50;57.30;;;;;;5077973;28;42996;-85
2023/12/23 01:39:50;;;;;;;;;;;16.30;57.30;;;;;;5066518;28;42907;-84
2023/12/23 01:42:16;;;;;;;;;;;;;;;;;;5067745;28;42944;-83
2023/12/23 01:44:41;;;;;;;;;;;16.30;57.30;;;;;;5086596;28;43000;-82
2023/12/23 01:47:07;;;;;;;;;;;;;;;;;;5085487;28;42934;-82
2023/12/23 01:49:33;;;;;;;;;;;;;;;;;;5068037;28;45713;-83
2023/12/23 01:51:59;;;;;;;;;;;16.20;57.30;;;;;;5086039;28;43548;-82
2023/12/23 01:54:25;;;;;;;;;;;;;;;;;;5085936;28;42937;-83
2023/12/23 01:56:51;;;;;;;;;;;;;;;;;;5084955;28;42943;-83
2023/12/23 01:59:17;;;;;;;;;;;16.30;57.20;;;;;;5085757;27;43464;-83
2023/12/23 02:01:42;;;;;;;;;;;;;;;;;;5068103;28;43025;-83
2023/12/23 02:04:08;;;;;;;;;;;16.40;57.40;;;;;;5066237;28;42870;-82
2023/12/23 02:06:34;;;;;;;;;;;16.40;57.40;;;;;;5065955;28;42913;-84
2023/12/23 02:09:01;;;;;;;;;;;16.40;57.10;;;;;;5065652;28;43655;-83
2023/12/23 02:11:45;;;;;;;;;;;16.30;57.40;;;;;;5065654;28;43005;-83
2023/12/23 02:14:11;;;;;;;;;;;;;;;;;;5064450;28;42944;-83
2023/12/23 02:16:36;;;;;;;;;;;16.30;57.40;;;;;;5068936;28;43392;-83
2023/12/23 02:19:02;;;;;;;;;;;16.30;57.30;;;;;;5084783;28;43657;-84
2023/12/23 02:21:27;;;;;;;;;;;16.30;57.40;;;;;;5085873;28;42999;-83
2023/12/23 02:23:53;;;;;;;;;;;;;;;;;;5067607;28;44416;-84
2023/12/23 02:26:19;;;;;;;;;;;;;;;;;;5073174;28;43176;-83
2023/12/23 02:28:48;;;;;;;;;;;;;;;;;;5089124;28;43531;-83
2023/12/23 02:31:14;;;;;;;;;;;16.30;57.40;;;;;;5086290;28;43007;-82
2023/12/23 02:33:40;;;;;;;;;;;16.30;57.50;;;;;;5085912;28;43725;-82
2023/12/23 02:36:05;;;;;;;;;;;16.10;56.90;;;;;;5086340;28;43043;-82
2023/12/23 02:38:31;;;;;;;;;;;;;;;;;;5086118;28;43376;-82
2023/12/23 02:40:57;;;;;;;;;;;16.20;57.40;;;;;;5069730;28;44010;-82
2023/12/23 02:43:22;;;;;;;;;;;;;;;;;;5065882;28;43044;-82
2023/12/23 02:45:48;;;;;;;;;;;16.30;57.60;;;;;;5081430;28;42961;-83
2023/12/23 02:48:14;;;;;;;;;;;16.20;57.60;;;;;;5080595;28;42990;-82
2023/12/23 02:50:39;;;;;;;;;;;16.20;56.90;;;;;;5065650;28;43069;-83
2023/12/23 02:53:08;;;;;;;;;;;;;;;;;;5050263;28;42864;-83
2023/12/23 02:55:34;;;;;;;;;;;16.30;56.40;;;;;;5065110;28;42886;-82
2023/12/23 02:58:01;;;;;;;;;;;;;;;;;;5063678;28;43366;-82
2023/12/23 03:00:26;;;;;;;;;;;16.40;57.50;;;;;;5065067;28;43064;-83
2023/12/23 03:02:52;;;;;;;;;;;;;;;;;;5065199;28;43075;-83
2023/12/23 03:05:18;;;;;;;;;;;16.30;57.60;;;;;;5082172;28;42946;-82
2023/12/23 03:07:43;;;;;;;;;;;16.20;57.00;;;;;;5065255;28;43595;-83
2023/12/23 03:10:09;;;;;;;;;;;;;;;;;;5064594;28;42953;-82
2023/12/23 03:12:35;;;;;;;;;;;;;;;;;;5066616;28;43053;-84
2023/12/23 03:15:02;;;;;;;;;;;;;;;;;;5065276;28;42922;-83
2023/12/23 03:17:28;;;;;;;;;;;16.20;57.60;;;;;;5064948;28;42959;-82
2023/12/23 03:19:55;;;;;;;;;;;;;;;;;;5081005;28;43085;-82
2023/12/23 03:22:21;;;;;;;;;;;;;;;;;;5076174;28;42980;-82
2023/12/23 03:24:46;;;;;;;;;;;;;;;;;;5064618;28;42989;-82
2023/12/23 03:27:12;;;;;;;;;;;16.30;57.60;;;;;;5076291;28;42948;-82
2023/12/23 03:29:37;;;;;;;;;;;16.30;57.60;;;;;;5084620;28;42907;-84
2023/12/23 03:32:03;;;;;;;;;;;;;;;;;;5084454;28;43501;-84
2023/12/23 03:34:29;;;;;;;;;;;16.10;56.70;;;;;;5070619;28;43008;-83
2023/12/23 03:36:55;;;;;;;;;;;;;;;;;;5082270;28;42873;-82
2023/12/23 03:39:21;;;;;;;;;;;;;;;;;;5085325;28;43041;-82
2023/12/23 03:41:46;;;;;;;;;;;16.30;57.50;;;;;;5066360;28;45544;-82
2023/12/23 03:44:13;;;;;;;;;;;16.10;56.20;;;;;;5082583;28;43123;-84
2023/12/23 03:46:39;;;;;;;;;;;;;;;;;;5084220;28;42962;-83
2023/12/23 03:49:04;;;;;;;;;;;16.20;57.60;;;;;;5084350;28;42916;-82
2023/12/23 03:51:30;;;;;;;;;;;16.20;57.60;;;;;;5084413;28;43504;-82
2023/12/23 03:53:56;;;;;;;;;;;;;;;;;;5083938;28;42971;-83
2023/12/23 03:56:21;;;;;;;;;;;16.30;57.80;;;;;;5081957;28;43967;-83
2023/12/23 03:58:47;;;;;;;;;;;;;;;;;;5072878;28;43067;-82
2023/12/23 04:01:15;;;;;;;;;;;;;;;;;;5084450;28;42909;-83
2023/12/23 04:03:41;;;;;;;;;;;;;;;;;;5071195;28;42805;-83
2023/12/23 04:06:07;;;;;;;;;;;;;;;;;;5064190;28;42942;-82
2023/12/23 04:08:33;;;;;;;;;;;;;;;;;;5063663;28;42996;-82
2023/12/23 04:10:59;;;;;;;;;;;;;;;;;;5064002;28;42922;-82
2023/12/23 04:13:25;;;;;;;;;;;;;;;;;;5064692;28;42872;-82
2023/12/23 04:15:51;;;;;;;;;;;;;;;;;;5064598;28;43605;-83
2023/12/23 04:18:17;;;;;;;;;;;;;;;;;;5064312;28;43171;-82
2023/12/23 04:20:42;;;;;;;;;;;16.20;57.90;;;;;;5064404;28;42991;-84
2023/12/23 04:23:08;;;;;;;;;;;16.40;58.00;;;;;;5068389;28;42889;-82
2023/12/23 04:25:33;;;;;;;;;;;16.20;57.80;;;;;;5067960;28;42842;-83
2023/12/23 04:27:59;;;;;;;;;;;;;;;;;;5067630;28;42985;-82
2023/12/23 04:30:25;;;;;;;;;;;;;;;;;;5067471;28;43638;-82
2023/12/23 04:32:51;;;;;;;;;;;;;;;;;;5068001;28;42895;-82
2023/12/23 04:35:17;;;;;;;;;;;;;;;;;;5067862;28;42922;-82
2023/12/23 04:37:44;;;;;;;;;;;16.30;57.90;;;;;;5067950;28;43116;-82
2023/12/23 04:40:10;;;;;;;;;;;16.20;57.80;;;;;;5068051;28;43447;-84
2023/12/23 04:42:36;;;;;;;;;;;;;;;;;;5068538;28;42885;-82
2023/12/23 04:45:02;;;;;;;;;;;;;;;;;;5066979;28;42926;-83
2023/12/23 04:47:28;;;;;;;;;;;16.30;58.00;;;;;;5067585;28;43191;-84
2023/12/23 04:49:54;;;;;;;;;;;16.20;57.80;;;;;;5065752;28;42950;-83
2023/12/23 04:52:20;;;;;;;;;;;16.20;57.90;;;;;;5066861;28;43026;-82
2023/12/23 04:54:45;;;;;;;;;;;16.30;57.90;;;;;;5048130;28;44726;-82
2023/12/23 04:57:11;;;;;;;;;;;;;;;;;;5067375;28;42982;-83
2023/12/23 04:59:37;;;;;;;;;;;;;;;;;;5067072;28;43870;-82
2023/12/23 05:02:03;;;;;;;;;;;;;;;;;;5067461;28;42955;-84
2023/12/23 05:04:29;;;;;;;;;;;;;;;;;;5066689;28;43647;-83
2023/12/23 05:06:55;;;;;;;;;;;;;;;;;;5066011;28;42914;-83
2023/12/23 05:09:20;;;;;;;;;;;;;;;;;;5064861;28;42993;-82
2023/12/23 05:11:46;;;;;;;;;;;16.20;57.80;;;;;;5049450;28;42810;-83
2023/12/23 05:14:11;;;;;;;;;;;16.00;57.70;;;;;;5067251;28;43943;-82
2023/12/23 05:16:37;;;;;;;;;;;16.20;56.80;;;;;;5048981;28;42934;-83
2023/12/23 05:19:03;;;;;;;;;;;;;;;;;;5066983;28;43009;-82
2023/12/23 05:21:29;;;;;;;;;;;;;;;;;;5067737;28;43053;-84
2023/12/23 05:23:55;;;;;;;;;;;;;;;;;;5066944;28;42712;-82
2023/12/23 05:26:21;;;;;;;;;;;;;;;;;;5084921;28;42739;-82
2023/12/23 05:28:47;;;;;;;;;;;16.20;58.00;;;;;;5086782;28;42982;-83
2023/12/23 05:31:13;;;;;;;;;;;;;;;;;;5086417;28;43182;-85
2023/12/23 05:33:39;;;;;;;;;;;;;;;;;;5085808;27;42898;-82
2023/12/23 05:36:05;;;;;;;;;;;;;;;;;;5087008;28;43107;-82
2023/12/23 05:38:31;;;;;;;;;;;;;;;;;;5086939;28;43814;-82
2023/12/23 05:40:56;;;;;;;;;;;16.30;57.90;;;;;;5056399;28;43658;-82
2023/12/23 05:43:22;;;;;;;;;;;16.10;57.90;;;;;;5046007;28;43578;-82
2023/12/23 05:45:47;;;;;;;;;;;16.20;57.90;;;;;;5045845;28;42881;-83
2023/12/23 05:48:14;;;;;;;;;;;;;;;;;;5046667;28;42895;-82
2023/12/23 05:50:40;;;;;;;;;;;;;;;;;;5046993;28;42925;-83
2023/12/23 05:53:05;;;;;;;;;;;16.10;57.70;;;;;;5044836;28;44394;-82
2023/12/23 05:55:31;;;;;;;;;;;;;;;;;;5062829;28;42894;-83
2023/12/23 05:57:57;;;;;;;;;;;;;;;;;;5065912;28;43357;-83
2023/12/23 06:00:23;;;;;;;;;;;;;;;;;;5065731;28;42866;-84
2023/12/23 06:02:49;;;;;;;;;;;;;;;;;;5061594;28;43663;-82
2023/12/23 06:05:15;;;;;;;;;;;;;;;;;;5065433;28;42964;-82
2023/12/23 06:07:41;;;;;;;;;;;;;;;;;;5066323;28;42996;-82
2023/12/23 06:10:07;;;;;;;;;;;;;;;;;;5065930;28;42839;-82
2023/12/23 06:12:33;;;;;;;;;;;;;;;;;;5065400;28;43357;-82
2023/12/23 06:14:58;;;;;;;;;;;16.10;57.50;;;;;;5045907;28;43221;-82
2023/12/23 06:17:24;;;;;;;;;;;16.20;57.40;;;;;;5046798;28;44628;-83
2023/12/23 06:19:50;;;;;;;;;;;16.20;57.40;;;;;;5065290;28;42899;-82
2023/12/23 06:22:15;;;;;;;;;;;16.30;57.10;;;;;;5064437;28;43616;-83
2023/12/23 06:24:44;;;;;;;;;;;16.30;56.60;;;;;;5064355;28;43017;-83
2023/12/23 06:27:12;;;;;;;;;;;16.20;57.00;;;;;;5064458;28;43896;-83
2023/12/23 06:29:37;;;;;;;;;;;16.20;57.00;;;;;;5045919;28;43120;-83
2023/12/23 06:32:03;;;;;;;;;;;16.20;56.10;;;;;;5046853;28;44769;-83
2023/12/23 06:34:29;;;;;;;;;;;;;;;;;;5065164;28;42883;-83
2023/12/23 06:36:55;;;;;;;;;;;;;;;;;;5046996;28;44053;-82
2023/12/23 06:39:21;;;;;;;;;;;;;;;;;;5065591;28;42999;-84
2023/12/23 06:41:46;;;;;;;;;;;16.30;57.60;;;;;;5064331;28;42961;-85
2023/12/23 06:44:12;;;;;;;;;;;16.20;57.50;;;;;;5063013;28;43108;-87
2023/12/23 06:46:38;;;;;;;;;;;;;;;;;;5059114;28;43576;-87
2023/12/23 06:49:04;;;;;;;;;;;;;;;;;;5063852;28;42990;-88
2023/12/23 06:51:30;;;;;;;;;;;;;;;;;;5064672;28;42989;-85
2023/12/23 06:54:03;;;;;;;;;;;16.20;56.90;;;;;;5047526;28;43122;-81
2023/12/23 06:56:29;;;;;;;;;;;;;;;;;;5066494;28;43091;-82
2023/12/23 06:58:55;;;;;;;;;;;16.10;56.00;;;;;;5063551;28;43056;-82
2023/12/23 07:01:21;;;;;;;;;;;;;;;;;;5060763;28;43024;-81
2023/12/23 07:03:47;;;;;;;;;;;;;;;;;;5046088;28;43123;-82
2023/12/23 07:06:13;;;;;;;;;;;;;;;;;;5064505;28;43552;-81
2023/12/23 07:08:45;;;;;;;;;;;;;;;;;;5065116;28;42822;-82
2023/12/23 07:11:11;;;;;;;;;;;;;;;;;;5064187;28;42906;-82
2023/12/23 07:13:39;;;;;;;;;;;16.10;57.30;;;;;;5061886;28;43017;-86
2023/12/23 07:16:06;;;;;;;;;;;;;;;;;;5063421;28;43129;-82
2023/12/23 07:18:31;;;;;;;;;;;16.20;57.20;;;;;;5064510;28;43060;-81
2023/12/23 07:20:57;;;;;;;;;;;;;;;;;;5063881;28;43099;-81
2023/12/23 07:23:23;;;;;;;;;;;16.20;57.10;;;;;;5060351;28;44368;-81
2023/12/23 07:25:49;;;;;;;;;;;;;;;;;;5064431;28;42989;-82
2023/12/23 07:28:14;;;;;;;;;;;16.20;57.20;;;;;;5064750;28;43060;-81
2023/12/23 07:30:44;;;;;;;;;;;;;;;;;;5064465;28;43547;-82
2023/12/23 07:33:11;;;;;;;;;;;16.30;57.40;;;;;;5063006;28;42973;-81
2023/12/23 07:35:36;;;;;;;;;;;16.10;57.40;;;;;;5064347;28;43716;-82
2023/12/23 07:38:02;;;;;;;;;;;16.10;57.30;;;;;;5044644;28;43121;-82
2023/12/23 07:40:28;;;;;;;;;;;16.20;53.20;;;;;;5064718;28;43320;-84
2023/12/23 07:42:53;;;;;;;;;;;16.00;50.50;;;;;;5066254;28;42943;-84
2023/12/23 07:45:21;;;;;;;;;;;;;;;;;;5064327;28;42930;-83
2023/12/23 07:47:47;;;;;;;;;;;15.80;49.70;;;;;;5060085;28;43091;-83
2023/12/23 07:50:13;;;;;;;;;;;;;;;;;;5059010;28;43594;-83
2023/12/23 07:52:39;;;;;;;;;;;;;;;;;;5067199;28;42827;-85
2023/12/23 07:55:05;;;;;;;;;;;;;;;;;;5061001;28;43020;-85
2023/12/23 07:57:31;;;;;;;;;;;;;;;;;;5059998;28;43194;-83
2023/12/23 07:59:56;;;;;;;;;;;15.30;49.60;;;;;;5066243;28;42906;-85
2023/12/23 08:02:22;;;;;;;;;;;15.30;48.70;;;;;;5066171;28;43176;-84
2023/12/23 08:04:48;;;;;;;;;;;15.10;49.60;;;;;;5066207;28;43265;-83
2023/12/23 08:07:13;;;;;;;;;;;15.30;49.90;;;;;;5066264;28;43049;-84
2023/12/23 08:09:39;;;;;;;;;;;;;;;;;;5067339;28;42981;-85
2023/12/23 08:12:05;;;;;;;;;;;;;;;;;;5064407;28;42850;-83
2023/12/23 08:14:31;;;;;;;;;;;;;;;;;;5061581;28;43460;-86
2023/12/23 08:16:57;;;;;;;;;;;;;;;;;;5067379;28;42804;-85
2023/12/23 08:19:23;;;;;;;;;;;;;;;;;;5048891;28;44466;-85
2023/12/23 08:21:49;;;;;;;;;;;;;;;;;;5048665;28;43061;-86
2023/12/23 08:24:15;;;;;;;;;;;;;;;;;;5066850;28;42910;-83
2023/12/23 08:26:40;;;;;;;;;;;;;;;;;;5064746;28;42878;-84
2023/12/23 08:29:06;;;;;;;;;;;15.10;49.20;;;;;;5066716;28;43453;-83
2023/12/23 08:31:31;;;;;;;;;;;14.90;50.70;;;;;;5066882;28;42932;-83
2023/12/23 08:33:57;;;;;;;;;;;15.20;50.30;;;;;;5066825;28;42906;-79
2023/12/23 08:36:23;;;;;;;;;;;;;;;;;;5067162;28;42938;-83
2023/12/23 08:38:49;;;;;;;;;;;;;;;;;;5067228;28;43163;-82
2023/12/23 08:41:15;;;;;;;;;;;;;;;;;;5063258;28;43145;-81
2023/12/23 08:43:41;;;;;;;;;;;;;;;;;;5064226;28;42997;-82
2023/12/23 08:46:06;;;;;;;;;;;;;;;;;;5067073;28;43096;-81
2023/12/23 08:48:32;;;;;;;;;;;15.30;52.60;;;;;;5048014;28;43284;-85
2023/12/23 08:50:57;;;;;;;;;;;15.40;53.00;;;;;;5066698;28;42945;-81
2023/12/23 08:53:23;;;;;;;;;;;15.30;53.00;;;;;;5066312;28;43602;-87
2023/12/23 08:55:52;;;;;;;;;;;;;;;;;;5066078;28;43033;-83
2023/12/23 08:58:18;;;;;;;;;;;;;;;;;;5048212;28;43723;-83
2023/12/23 09:00:44;;;;;;;;;;;;;;;;;;5048160;28;42866;-83
2023/12/23 09:03:09;;;;;;;;;;;15.30;54.40;;;;;;5066752;28;42885;-81
2023/12/23 09:05:35;;;;;;;;;;;;;;;;;;5047992;28;43007;-83
2023/12/23 09:08:01;;;;;;;;;;;;;;;;;;5044999;28;44430;-80
2023/12/23 09:10:27;;;;;;;;;;;;;;;;;;5072969;28;42844;-81
2023/12/23 09:12:53;;;;;;;;;;;;;;;;;;5069441;28;44213;-82
2023/12/23 09:15:19;;;;;;;;;;;;;;;;;;5061659;28;43080;-83
2023/12/23 09:17:45;;;;;;;;;;;;;;;;;;5061410;28;42940;-84
2023/12/23 09:20:11;;;;;;;;;;;;;;;;;;5046619;28;43102;-83
2023/12/23 09:22:37;;;;;;;;;;;;;;;;;;5059278;28;42985;-80
2023/12/23 09:25:03;;;;;;;;;;;;;;;;;;5061077;28;43002;-84
2023/12/23 09:27:31;;;;;;;;;;;;;;;;;;5062889;28;43608;-87
2023/12/23 09:29:58;;;;;;;;;;;;;;;;;;5064788;28;43202;-83
2023/12/23 09:32:24;;;;;;;;;;;15.20;56.10;;;;;;5047849;28;44000;-80
2023/12/23 09:34:51;;;;;;;;;;;15.10;56.20;;;;;;5066275;28;43114;-81
2023/12/23 09:37:17;;;;;;;;;;;15.20;55.50;;;;;;5063421;28;43054;-81
2023/12/23 09:39:43;;;;;;;;;;;;;;;;;;5066282;28;42949;-87
2023/12/23 09:42:09;;;;;;;;;;;;;;;;;;5066404;28;42922;-87
2023/12/23 09:44:35;;;;;;;;;;;15.30;55.10;;;;;;5066194;28;42988;-86
2023/12/23 09:47:01;;;;;;;;;;;;;;;;;;5062696;28;42868;-81
2023/12/23 09:49:27;;;;;;;;;;;;;;;;;;5061080;28;42934;-83
2023/12/23 09:51:53;;;;;;;;;;;;;;;;;;5064368;28;43440;-86
2023/12/23 09:54:19;;;;;;;;;;;15.20;57.40;;;;;;5056762;28;43126;-81
2023/12/23 09:56:45;;;;;;;;;;;;;;;;;;5062065;28;42925;-81
2023/12/23 09:59:11;;;;;;;;;;;;;;;;;;5048941;28;42967;-83
2023/12/23 10:01:37;;;;;;;;;;;;;;;;;;5060181;28;42958;-85
2023/12/23 10:04:03;;;;;;;;;;;;;;;;;;5047044;28;43325;-83
2023/12/23 10:06:29;;;;;;;;;;;;;;;;;;5065621;28;43818;-83
2023/12/23 10:08:55;;;;;;;;;;;;;;;;;;5066978;28;42932;-82
2023/12/23 10:11:20;;;;;;;;;;;15.30;58.50;;;;;;5065690;28;42990;-82
2023/12/23 10:13:46;;;;;;;;;;;15.40;58.60;;;;;;5078198;28;42874;-82
2023/12/23 10:16:13;;;;;;;;;;;15.40;57.80;;;;;;5086230;28;43150;-82
2023/12/23 10:18:40;;;;;;;;;;;;;;;;;;5066764;28;43591;-82
2023/12/23 10:21:06;;;;;;;;;;;15.50;58.60;;;;;;5065311;28;43779;-82
2023/12/23 10:23:32;;;;;;;;;;;15.60;58.90;;;;;;5064755;28;43009;-83
2023/12/23 10:25:58;;;;;;;;;;;;;;;;;;5065258;28;43258;-82
2023/12/23 10:28:24;;;;;;;;;;;;;;;;;;5065845;28;42926;-82
2023/12/23 10:30:51;;;;;;;;;;;15.60;58.10;;;;;;5060388;28;42970;-82
2023/12/23 10:33:17;;;;;;;;;;;;;;;;;;5065307;28;42917;-82
2023/12/23 10:35:43;;;;;;;;;;;;;;;;;;5057938;28;42983;-80
2023/12/23 10:38:09;;;;;;;;;;;;;;;;;;5060009;28;43031;-86
2023/12/23 10:40:35;;;;;;;;;;;;;;;;;;5050153;28;44813;-82
2023/12/23 10:43:01;;;;;;;;;;;;;;;;;;5084799;28;42942;-81
2023/12/23 10:45:27;;;;;;;;;;;15.90;58.10;;;;;;5084219;28;43530;-84
2023/12/23 10:47:53;;;;;;;;;;;15.90;57.50;;;;;;5061925;28;43126;-84
2023/12/23 10:50:19;;;;;;;;;;;;;;;;;;5064571;28;43016;-86
2023/12/23 10:52:45;;;;;;;;;;;;;;;;;;5065128;28;43048;-84
2023/12/23 10:55:11;;;;;;;;;;;;;;;;;;5070278;28;43444;-83
2023/12/23 10:57:37;;;;;;;;;;;;;;;;;;5058007;28;42859;-85
2023/12/23 11:00:03;;;;;;;;;;;;;;;;;;5085917;28;42939;-83
2023/12/23 11:02:29;;;;;;;;;;;;;;;;;;5071416;28;44541;-85
2023/12/23 11:04:56;;;;;;;;;;;15.90;57.10;;;;;;5065261;28;43552;-84
2023/12/23 11:07:27;;;;;;;;;;;16.10;57.20;;;;;;5064494;28;42996;-83
2023/12/23 11:09:53;;;;;;;;;;;;;;;;;;5066058;28;42922;-82
2023/12/23 11:12:19;;;;;;;;;;;;;;;;;;5065396;28;42970;-84
2023/12/23 11:14:46;;;;;;;;;;;;;;;;;;5064735;28;42994;-82
2023/12/23 11:17:28;;;;;;;;;;;16.00;58.10;;;;;;5065279;28;42942;-83
2023/12/23 11:19:56;;;;;;;;;;;16.10;58.20;;;;;;5066098;28;43425;-88
2023/12/23 11:22:22;;;;;;;;;;;;;;;;;;5046972;28;43041;-82
2023/12/23 11:24:48;;;;;;;;;;;16.00;58.00;;;;;;5071057;28;43571;-81
2023/12/23 11:27:32;;;;;;;;;;;16.00;58.00;;;;;;5066564;28;42866;-81
2023/12/23 11:30:10;;;;;;;;;;;16.00;58.30;;;;;;5041088;28;43664;-76
2023/12/23 11:32:40;;;;;;;;;;;16.00;58.40;;;;;;5049055;28;42976;-75
2023/12/23 11:35:09;;;;;;;;;;;16.10;58.40;;;;;;5055156;28;44408;-76
2023/12/23 11:37:46;;;;;;;;;;;16.00;58.50;;;;;;5072256;28;43414;-77
2023/12/23 11:40:13;;;;;;;;;;;16.10;58.50;;;;;;5073387;28;43709;-79
2023/12/23 11:42:39;;;;;;;;;;;;;;;;;;5054014;28;43037;-78
2023/12/23 11:45:05;;;;;;;;;;;;;;;;;;5074240;28;43631;-78
2023/12/23 11:47:31;;;;;;;;;;;;;;;;;;5074263;28;43247;-78
2023/12/23 11:49:57;;;;;;;;;;;;;;;;;;5074744;28;42806;-77
2023/12/23 11:52:23;;;;;;;;;;;;;;;;;;5073056;28;43359;-76
2023/12/23 11:54:48;;;;;;;;;;;;;;;;;;5064339;28;42988;-77
2023/12/23 11:57:14;;;;;;;;;;;16.30;58.90;;;;;;5064596;28;43021;-76
2023/12/23 11:59:40;;;;;;;;;;;16.30;59.00;;;;;;5061698;28;43721;-79
2023/12/23 12:02:06;;;;;;;;;;;;;;;;;;5041461;28;43607;-79
2023/12/23 12:04:32;;;;;;;;;;;;;;;;;;5080333;28;43603;-78
2023/12/23 12:06:57;;;;;;;;;;;16.30;59.00;;;;;;5063478;28;43131;-94
2023/12/23 12:09:24;;;;;;;;;;;;;;;;;;5062477;28;43788;-86
2023/12/23 12:11:49;;;;;;;;;;;16.40;58.70;;;;;;5063139;28;42939;-85
2023/12/23 12:14:15;;;;;;;;;;;;;;;;;;5062939;28;43031;-85
2023/12/23 12:16:41;;;;;;;;;;;;;;;;;;5062953;28;42965;-82
2023/12/23 12:19:07;;;;;;;;;;;;;;;;;;5063904;28;42870;-84
2023/12/23 12:21:33;;;;;;;;;;;;;;;;;;5062900;28;42987;-88
2023/12/23 12:23:59;;;;;;;;;;;;;;;;;;5079922;28;43355;-91
2023/12/23 12:26:25;;;;;;;;;;;;;;;;;;5064916;28;42992;-90
2023/12/23 12:28:51;;;;;;;;;;;;;;;;;;5066332;28;43049;-91
2023/12/23 12:31:17;;;;;;;;;;;;;;;;;;5064082;28;42926;-86
2023/12/23 12:33:43;;;;;;;;;;;;;;;;;;5063375;28;42980;-84
2023/12/23 12:36:11;;;;;;;;;;;;;;;;;;5044001;28;42988;-85
2023/12/23 12:38:37;;;;;;;;;;;;;;;;;;5058643;28;43552;-85
2023/12/23 12:41:03;;;;;;;;;;;;;;;;;;5061756;28;42960;-85
2023/12/23 12:43:29;;;;;;;;;;;;;;;;;;5068315;27;43091;-82
2023/12/23 12:45:55;;;;;;;;;;;;;;;;;;5067082;28;43032;-84
2023/12/23 12:48:21;;;;;;;;;;;;;;;;;;5048072;28;44380;-86
2023/12/23 12:50:47;;;;;;;;;;;;;;;;;;5065900;28;43038;-84
2023/12/23 12:53:13;;;;;;;;;;;;;;;;;;5063229;28;43463;-86
2023/12/23 12:55:39;;;;;;;;;;;;;;;;;;5065803;28;43401;-87
2023/12/23 12:58:05;;;;;;;;;;;;;;;;;;5061663;28;42987;-87
2023/12/23 13:00:31;;;;;;;;;;;;;;;;;;5066377;28;42929;-90
2023/12/23 13:02:57;;;;;;;;;;;;;;;;;;5045649;28;45447;-87
2023/12/23 13:05:23;;;;;;;;;;;;;;;;;;5044081;28;43068;-84
2023/12/23 13:07:50;;;;;;;;;;;;;;;;;;5045915;28;43111;-93
2023/12/23 13:10:19;;;;;;;;;;;16.30;59.30;;;;;;5046347;28;43253;-94
2023/12/23 13:12:48;;;;;;;;;;;;;;;;;;5067552;28;43094;-92
2023/12/23 13:15:13;;;;;;;;;;;16.40;59.20;;;;;;5065173;28;43020;-92
2023/12/23 13:17:39;;;;;;;;;;;;;;;;;;5047485;28;44535;-94
2023/12/23 13:20:06;;;;;;;;;;;;;;;;;;5065917;28;42955;-94
2023/12/23 13:22:32;;;;;;;;;;;16.50;59.20;;;;;;5065724;28;42973;-91
2023/12/23 13:24:58;;;;;;;;;;;;;;;;;;5065286;28;43056;-91
2023/12/23 13:27:24;;;;;;;;;;;;;;;;;;5047715;28;44305;-95
2023/12/23 13:29:52;;;;;;;;;;;;;;;;;;5062160;28;42955;-90
2023/12/23 13:32:18;;;;;;;;;;;;;;;;;;5042736;28;45531;-91
2023/12/23 13:37:28;;;;;;;;;;;16.30;59.40;;;;;;5124562;22;43194;-85
2023/12/23 13:40:06;;;;;;;;;;;;;;;;;;5044691;28;42923;-84
2023/12/23 13:42:32;;;;;;;;;;;;;;;;;;5032129;28;44355;-86
2023/12/23 13:44:57;;;;;;;;;;;16.50;60.20;;;;;;5047237;28;42855;-87
2023/12/23 13:47:23;;;;;;;;;;;;;;;;;;5046607;28;42930;-85
2023/12/23 13:49:49;;;;;;;;;;;;;;;;;;5045957;28;42930;-86
2023/12/23 13:52:16;;;;;;;;;;;;;;;;;;5045496;28;42864;-86
2023/12/23 13:54:42;;;;;;;;;;;;;;;;;;5027577;28;42975;-88
2023/12/23 13:57:08;;;;;;;;;;;;;;;;;;5027650;28;42968;-86
2023/12/23 13:59:33;;;;;;;;;;;16.40;61.40;;;;;;5028003;28;42884;-85
2023/12/23 14:01:59;;;;;;;;;;;;;;;;;;5045906;28;43420;-86
2023/12/23 14:04:25;;;;;;;;;;;;;;;;;;5046511;28;42977;-86
2023/12/23 14:06:51;;;;;;;;;;;;;;;;;;5046399;28;42922;-86
2023/12/23 14:09:17;;;;;;;;;;;;;;;;;;5046463;28;43037;-87
2023/12/23 14:11:52;;;;;;;;;;;;;;;;;;5045150;28;43081;-87
2023/12/23 14:14:17;;;;;;;;;;;16.60;61.80;;;;;;5027447;28;42956;-85
2023/12/23 14:16:43;;;;;;;;;;;;;;;;;;5045069;28;43044;-86
2023/12/23 14:19:09;;;;;;;;;;;;;;;;;;5045565;28;42931;-85
2023/12/23 14:21:35;;;;;;;;;;;;;;;;;;5045709;28;42922;-85
2023/12/23 14:24:01;;;;;;;;;;;;;;;;;;5046002;28;42878;-85
2023/12/23 14:26:27;;;;;;;;;;;;;;;;;;5026977;28;43979;-87
2023/12/23 14:28:54;;;;;;;;;;;;;;;;;;5044724;28;43160;-87
2023/12/23 14:31:20;;;;;;;;;;;16.70;60.70;;;;;;5033156;28;44184;-88
2023/12/23 14:36:17;;;;;;;;;;;;;;;;;;5080935;22;42913;-87
2023/12/23 14:38:43;;;;;;;;;;;;;;;;;;5044081;28;43068;-83
2023/12/23 14:41:09;;;;;;;;;;;;;;;;;;5047778;28;45402;-83
2023/12/23 14:43:34;;;;;;;;;;;16.50;64.00;;;;;;5061670;28;43032;-83
2023/12/23 14:46:00;;;;;;;;;;;;;;;;;;5064765;28;43589;-83
2023/12/23 14:48:26;;;;;;;;;;;;;;;;;;5064485;28;43120;-83
2023/12/23 14:50:52;;;;;;;;;;;;;;;;;;5062532;28;43675;-82
2023/12/23 14:53:18;;;;;;;;;;;;;;;;;;5064965;28;43012;-82
2023/12/23 14:55:49;;;;;;;;;;;16.70;64.90;;;;;;5064114;28;43709;-82
2023/12/23 14:58:15;;;;;;;;;;;;;;;;;;5044028;28;42956;-84
2023/12/23 15:00:41;;;;;;;;;;;;;;;;;;5061805;28;43729;-83
2023/12/23 15:03:07;;;;;;;;;;;;;;;;;;5063106;28;42984;-83
2023/12/23 15:05:42;;;;;;;;;;;;;;;;;;5066273;28;43803;-84
2023/12/23 15:08:08;;;;;;;;;;;16.70;68.40;;;;;;5066469;28;43108;-84
2023/12/23 15:10:33;;;;;;;;;;;16.60;66.00;;;;;;5045543;28;44081;-84
2023/12/23 15:13:04;;;;;;;;;;;;;;;;;;5064128;28;43080;-84
2023/12/23 15:15:29;;;;;;;;;;;16.60;68.30;;;;;;5064208;28;43520;-84
2023/12/23 15:17:58;;;;;;;;;;;;;;;;;;5066955;28;43215;-84
2023/12/23 15:20:24;;;;;;;;;;;16.50;65.50;;;;;;5045314;28;45104;-84
2023/12/23 15:22:49;;;;;;;;;;;16.60;66.40;;;;;;5063993;28;43132;-84
2023/12/23 15:25:16;;;;;;;;;;;16.60;68.20;;;;;;5061965;28;43411;-83
2023/12/23 15:27:42;;;;;;;;;;;16.70;65.50;;;;;;5053547;28;43024;-85
2023/12/23 15:30:09;;;;;;;;;;;;;;;;;;5065316;28;42867;-84
2023/12/23 15:32:35;;;;;;;;;;;;;;;;;;5045920;28;43201;-84
2023/12/23 15:35:07;;;;;;;;;;;;;;;;;;5064492;28;42854;-83
2023/12/23 15:37:33;;;;;;;;;;;;;;;;;;5042634;28;43303;-84